Warsaw, IN

1:52 AM EDT on June 02, 2015 (GMT -0400)
Winona Lake | | Change Station
CLOSE
Current Station
Personal Weather Station
Location: Winona Lake, IN
Elevation: 820 ft
Nearby Weather Stations

Elev 820 ft 41.22 °N, 85.82 °W | Updated 20 minutes ago

Clear
Clear
49.4 °F
Feels Like 49 °F
N
0.0
Wind Variable Wind from East
Gusts 0.0 mph

Today
High -- | Low -- °F
--% Chance of Precip.
Yesterday
High -- | Low -- °F
Precip. -- in
6:12 AM 9:10 PM
Full, 100% visible
Pressure 30.20 in
Visibility 10.0 miles
Clouds Clear
Windchill 49 °F
Dew Point 48 °F
Humidity 96%
Rainfall 0.00 in
Snow Depth Not available.
UV 0 out of 12
Pollen 8.50 out of 12
Air Quality Not available.
Flu Activity No Activity
METAR KGSH 020453Z AUTO 03003KT 10SM CLR 09/08 A3019 RMK AO2 SLP226 T00890078 401890089 TSNO

More Conditions Fewer Conditions

Pressure 30.20 in
Visibility 10.0 miles
Clouds Clear
Windchill 49 °F
Dew Point 48 °F
Humidity 96%
Rainfall 0.00 in
Snow Depth Not available.
UV 0 out of 12
Pollen 8.50 out of 12
Air Quality Not available.
Flu Activity No Activity
METAR KGSH 020453Z AUTO 03003KT 10SM CLR 09/08 A3019 RMK AO2 SLP226 T00890078 401890089 TSNO

More Conditions Fewer Conditions

10-Day Weather Forecast

Almanac

Astronomy

Jun. 02, 2015 Rise Set
Actual Time
Civil Twilight
Nautical Twilight
Astronomical Twilight
Moon
Length of Visible Light
Length of Day
Tomorrow will be .
, % of the Moon is Illuminated

Today's Extremes

State Highs State Lows

Community

WunderPhotos

Upload Photos

1,825,920 photos uploaded!

WunderBlogs® & News

Nearby

Air Quality

  Air Quality AQ Index Pollutant
Not available.

Snow Depth

Station Depth Elevation

Earthquake Activity

City Distance Mag. Time & Date
Minimum magnitude displayed is 2.5.

Coastal Water Temperatures

Place Temperature

Stations

Nearby Weather Stations

Station Location Temp. Windchill Dew Point Humidity Wind Precip. Elev Updated Type